Time;durP1;ratioP1;P1;durP2;ratioP2;P2;SDS_P1;SDS_P2;PMS_P1;PMS_P2;Temp;Humidity;BMP_temperature;BMP_pressure;BME280_temperature;BME280_humidity;BME280_pressure;Samples;Min_cycle;Max_cycle;Signal;HPM_P1;HPM_P2
2024/02/15 00:04:42;;;;;;;35.97;15.75;;;15.70;99.90;;;;;;7447254;19;20006;-85
2024/02/15 00:11:17;;;;;;;25.37;6.27;;;15.60;99.90;;;;;;7449116;19;19981;-85
2024/02/15 00:59:37;;;;;;;11.18;4.30;;;15.50;99.90;;;;;;7420622;19;20043;-85
2024/02/15 01:08:49;;;;;;;13.93;3.80;;;15.50;99.90;;;;;;7318598;19;2004464;-85
2024/02/15 01:12:03;;;;;;;11.18;3.97;;;15.50;99.90;;;;;;7438669;19;20011;-84
2024/02/15 01:15:23;;;;;;;13.35;4.75;;;15.40;99.90;;;;;;7324066;19;2006164;-84
2024/02/15 01:21:16;;;;;;;11.02;4.15;;;15.40;99.90;;;;;;7417954;19;20010;-84
2024/02/15 01:23:49;;;;;;;11.50;4.55;;;15.40;99.90;;;;;;7414730;19;20336;-83
2024/02/15 01:26:17;;;;;;;10.90;4.75;;;15.40;99.90;;;;;;7438347;19;20009;-83
2024/02/15 01:52:42;;;;;;;9.10;4.15;;;15.10;99.90;;;;;;7414748;19;20013;-84
2024/02/15 02:55:07;;;;;;;29.23;11.00;;;14.80;99.90;;;;;;7316890;19;2004247;-83
2024/02/15 03:31:05;;;;;;;21.65;10.70;;;14.60;99.90;;;;;;7415746;19;20350;-84
2024/02/15 03:37:36;;;;;;;;;;;;;;;;;;;;;
2024/02/15 03:40:37;;;;;;;28.08;11.38;;;14.50;99.90;;;;;;7418574;19;20040;-83
2024/02/15 03:43:43;;;;;;;;;;;;;;;;;;;;;
2024/02/15 03:46:50;;;;;;;22.83;9.82;;;14.50;99.90;;;;;;7418783;19;20885;-84
2024/02/15 03:49:34;;;;;;;27.73;10.57;;;14.50;99.90;;;;;;7417952;19;20010;-85
2024/02/15 03:52:10;;;;;;;25.33;10.13;;;14.50;99.90;;;;;;7419606;19;20023;-85
2024/02/15 03:58:30;;;;;;;;;;;;;;;;;;;;;
2024/02/15 04:04:24;;;;;;;23.15;9.23;;;14.60;99.90;;;;;;7414311;19;20027;-83
2024/02/15 04:07:16;;;;;;;22.60;8.82;;;14.70;99.90;;;;;;7415969;19;20017;-84
2024/02/15 04:09:59;;;;;;;17.70;8.18;;;14.70;99.90;;;;;;7415291;19;20014;-84
2024/02/15 04:13:32;;;;;;;16.38;8.60;;;14.70;99.90;;;;;;7390920;19;20362;-84
2024/02/15 04:16:37;;;;;;;16.95;8.05;;;14.70;99.90;;;;;;7416605;19;20019;-84
2024/02/15 04:52:51;;;;;;;19.50;8.68;;;14.40;99.90;;;;;;6809458;19;11881228;-84
2024/02/15 04:56:08;;;;;;;19.20;7.57;;;14.40;99.90;;;;;;7443061;19;20003;-84
2024/02/15 06:07:18;;;;;;;18.70;8.88;;;14.00;99.90;;;;;;7416279;19;20324;-83
2024/02/15 06:10:21;;;;;;;;;;;;;;;;;;;;;
2024/02/15 06:13:47;;;;;;;21.95;10.77;;;13.90;99.90;;;;;;7396776;19;20006;-82
2024/02/15 06:16:16;;;;;;;24.67;11.75;;;13.90;99.90;;;;;;7443446;19;20014;-83
2024/02/15 06:26:00;;;;;;;23.17;11.93;;;13.80;99.90;;;;;;7418403;19;20054;-84
2024/02/15 06:40:21;;;;;;;23.63;11.32;;;13.70;99.90;;;;;;7416482;19;20006;-83
2024/02/15 06:46:28;;;;;;;22.27;12.15;;;13.70;99.90;;;;;;7396330;19;20066;-84
2024/02/15 06:49:12;;;;;;;27.00;12.93;;;13.60;99.90;;;;;;7434578;19;20011;-84
2024/02/15 06:51:41;;;;;;;26.13;13.27;;;13.70;99.90;;;;;;7416667;19;19998;-83
2024/02/15 06:54:24;;;;;;;30.52;14.20;;;13.60;99.90;;;;;;7418817;19;20019;-84
2024/02/15 06:56:55;;;;;;;28.13;15.10;;;13.70;99.90;;;;;;7419692;19;20019;-84
2024/02/15 06:59:34;;;;;;;31.17;14.60;;;13.60;99.90;;;;;;7434356;19;20002;-83
2024/02/15 07:02:08;;;;;;;30.77;16.98;;;13.60;99.90;;;;;;7419086;19;20010;-84
2024/02/15 07:04:37;;;;;;;36.75;17.65;;;13.50;99.90;;;;;;7413521;19;20024;-83
2024/02/15 07:07:42;;;;;;;31.83;16.23;;;13.60;99.90;;;;;;7413963;19;20026;-83
2024/02/15 07:10:18;;;;;;;29.67;16.10;;;13.50;99.90;;;;;;7415054;19;20006;-83
2024/02/15 07:16:31;;;;;;;29.45;14.05;;;13.60;99.90;;;;;;7402761;19;20059;-83
2024/02/15 07:19:15;;;;;;;25.17;13.35;;;13.60;99.90;;;;;;7385139;19;20009;-85
2024/02/15 07:59:00;;;;;;;42.72;23.92;;;13.60;99.90;;;;;;7407940;19;20007;-79
2024/02/15 08:01:30;;;;;;;31.10;18.13;;;13.60;99.90;;;;;;7442350;19;20063;-81
2024/02/15 08:04:05;;;;;;;31.33;17.40;;;13.60;99.90;;;;;;7419291;19;20006;-82
2024/02/15 08:06:36;;;;;;;26.38;14.93;;;13.60;99.90;;;;;;7421248;19;20026;-81
2024/02/15 08:09:07;;;;;;;27.35;13.68;;;13.60;99.90;;;;;;7417831;19;19998;-82
2024/02/15 08:34:10;;;;;;;20.73;6.13;;;14.00;99.90;;;;;;7415455;19;20006;-80
2024/02/15 08:36:42;;;;;;;19.92;7.18;;;14.20;99.90;;;;;;7436433;19;20018;-82
2024/02/15 08:39:11;;;;;;;10.77;5.88;;;14.20;99.90;;;;;;7415900;19;20397;-80
2024/02/15 08:41:40;;;;;;;15.55;6.03;;;14.30;99.90;;;;;;7438949;19;20018;-81
2024/02/15 08:44:34;;;;;;;15.77;6.20;;;14.30;99.90;;;;;;7415431;19;20014;-82
2024/02/15 08:47:24;;;;;;;14.45;6.13;;;14.40;99.90;;;;;;7387279;19;20493;-82
2024/02/15 08:50:11;;;;;;;17.05;5.75;;;14.40;99.90;;;;;;7364300;19;20019;-86
2024/02/15 08:53:06;;;;;;;11.18;5.18;;;14.50;99.90;;;;;;7406324;19;20003;-84
2024/02/15 08:56:16;;;;;;;13.50;5.18;;;14.50;99.90;;;;;;7387485;19;20066;-88
2024/02/15 08:58:47;;;;;;;11.15;4.85;;;14.60;99.90;;;;;;7406951;19;20009;-82
2024/02/15 09:01:26;;;;;;;8.55;4.50;;;14.70;99.90;;;;;;7386377;19;20021;-82
2024/02/15 09:03:57;;;;;;;9.50;4.47;;;14.70;99.90;;;;;;7384889;19;20019;-82
2024/02/15 09:06:28;;;;;;;11.00;4.95;;;14.80;99.90;;;;;;7386069;19;20015;-83
2024/02/15 09:08:57;;;;;;;14.43;5.93;;;14.90;99.90;;;;;;7391890;19;20007;-79
2024/02/15 09:11:42;;;;;;;11.88;5.15;;;14.90;99.90;;;;;;7405830;19;20038;-81
2024/02/15 09:17:22;;;;;;;12.48;5.57;;;15.00;99.90;;;;;;7385253;19;20374;-81
2024/02/15 09:19:55;;;;;;;17.50;5.53;;;15.10;99.90;;;;;;7387459;19;20047;-80
2024/02/15 09:22:24;;;;;;;16.30;5.72;;;15.20;99.90;;;;;;7385481;19;20013;-80
2024/02/15 09:24:53;;;;;;;10.13;5.47;;;15.20;99.90;;;;;;7386334;19;20118;-79
2024/02/15 09:27:23;;;;;;;15.82;6.00;;;15.20;99.90;;;;;;7387896;19;20018;-82
2024/02/15 09:29:55;;;;;;;10.43;5.53;;;15.30;99.90;;;;;;7406929;19;20018;-82
2024/02/15 09:32:25;;;;;;;14.85;6.10;;;15.40;99.90;;;;;;7386270;19;20230;-81
2024/02/15 09:34:56;;;;;;;15.60;5.50;;;15.40;99.90;;;;;;7384872;19;20011;-79
2024/02/15 09:37:27;;;;;;;14.57;6.68;;;15.50;99.90;;;;;;7385090;19;20003;-82
2024/02/15 09:40:06;;;;;;;;;;;;;;;;;;;;;
2024/02/15 09:42:56;;;;;;;18.52;8.27;;;15.50;99.90;;;;;;7394562;19;20014;-84
2024/02/15 09:48:37;;;;;;;21.93;9.30;;;15.70;99.90;;;;;;7394498;19;19999;-82
2024/02/15 09:51:31;;;;;;;22.60;9.98;;;15.70;99.90;;;;;;7412995;19;20017;-84
2024/02/15 09:56:45;;;;;;;21.42;9.82;;;15.80;99.90;;;;;;7391859;19;20373;-81
2024/02/15 10:02:27;;;;;;;17.43;8.40;;;15.90;99.90;;;;;;7419041;19;19983;-82
2024/02/15 10:04:58;;;;;;;22.95;8.15;;;15.90;99.90;;;;;;7389115;19;20362;-78
2024/02/15 10:07:30;;;;;;;17.20;7.47;;;15.90;99.90;;;;;;7382393;19;20003;-78
2024/02/15 10:09:59;;;;;;;17.15;7.15;;;15.90;99.90;;;;;;7383128;19;20015;-77
2024/02/15 10:12:40;;;;;;;15.15;6.63;;;16.00;99.90;;;;;;7383831;19;20020;-78
2024/02/15 10:15:11;;;;;;;17.05;5.72;;;16.00;99.90;;;;;;7390399;19;20259;-82
2024/02/15 10:30:32;;;;;;;7.63;3.07;;;16.00;99.90;;;;;;7278751;19;20926;31
2024/02/15 10:51:48;;;;;;;10.63;3.40;;;16.10;99.90;;;;;;7387586;19;20026;-81
2024/02/15 10:54:40;;;;;;;8.63;4.07;;;16.10;99.90;;;;;;7387806;19;20011;-82
2024/02/15 10:57:11;;;;;;;5.30;3.10;;;16.20;99.90;;;;;;7388159;19;20014;-82
2024/02/15 11:02:38;;;;;;;9.05;3.70;;;16.30;99.90;;;;;;7387175;19;20009;-81
2024/02/15 11:11:56;;;;;;;7.33;3.30;;;16.40;99.90;;;;;;7403235;19;20007;-81
2024/02/15 11:18:28;;;;;;;9.02;3.35;;;16.40;99.90;;;;;;7330845;19;19948;-84
2024/02/15 11:33:38;;;;;;;6.65;2.95;;;16.60;99.90;;;;;;7450715;19;19998;-84
2024/02/15 11:36:11;;;;;;;6.63;2.58;;;16.60;99.90;;;;;;7419259;19;20011;-79
2024/02/15 11:51:42;;;;;;;13.23;3.03;;;16.80;99.90;;;;;;7426180;19;20045;-86
2024/02/15 11:58:18;;;;;;;7.93;3.05;;;16.80;99.90;;;;;;7440792;19;20027;-88
2024/02/15 12:20:24;;;;;;;6.03;2.40;;;16.90;99.90;;;;;;7420872;19;20010;-87
2024/02/15 13:20:31;;;;;;;7.65;2.72;;;18.40;99.90;;;;;;7422046;19;20075;-82
2024/02/15 14:10:10;;;;;;;10.43;2.47;;;18.90;99.90;;;;;;7418903;19;20006;-80
2024/02/15 14:13:01;;;;;;;;;;;;;;;;;;;;;
2024/02/15 14:16:03;;;;;;;;;;;;;;;;;;;;;
2024/02/15 14:33:19;;;;;;;10.32;4.35;;;19.30;99.90;;;;;;7400452;19;20006;-81
2024/02/15 14:46:29;;;;;;;4.22;2.00;;;19.40;99.90;;;;;;7419039;19;20340;-80
2024/02/15 14:52:27;;;;;;;4.35;1.90;;;19.50;99.90;;;;;;7443239;19;20119;-79
2024/02/15 14:55:52;;;;;;;7.20;2.20;;;19.40;99.90;;;;;;7421895;19;20046;-82
2024/02/15 14:58:43;;;;;;;3.90;2.10;;;19.40;99.90;;;;;;7421103;19;20035;-79
2024/02/15 15:01:40;;;;;;;5.37;2.43;;;19.40;99.90;;;;;;7415255;19;20007;-81
2024/02/15 15:04:11;;;;;;;5.82;2.35;;;19.30;99.90;;;;;;7413882;19;20010;-80
2024/02/15 15:16:30;;;;;;;4.80;2.42;;;19.20;99.90;;;;;;7419137;19;20033;-79
2024/02/15 15:19:04;;;;;;;8.68;2.38;;;19.20;99.90;;;;;;7419461;19;20033;-81
2024/02/15 15:42:09;;;;;;;10.07;2.33;;;18.60;99.90;;;;;;7418598;19;20010;-83
2024/02/15 15:44:39;;;;;;;8.57;2.60;;;18.50;99.90;;;;;;7416958;19;20420;-81
2024/02/15 15:47:49;;;;;;;6.45;2.60;;;18.50;99.90;;;;;;7422659;19;20018;-85
2024/02/15 15:59:52;;;;;;;7.82;2.70;;;18.30;99.90;;;;;;7387021;19;20019;-83
2024/02/15 16:03:05;;;;;;;6.35;3.13;;;18.30;99.90;;;;;;7388550;19;20011;-83
2024/02/15 16:05:34;;;;;;;8.73;3.35;;;18.30;99.90;;;;;;7388993;19;20032;-82
2024/02/15 16:14:39;;;;;;;16.60;2.78;;;18.20;99.90;;;;;;7385009;19;20336;-79
2024/02/15 16:20:32;;;;;;;5.93;2.53;;;18.10;99.90;;;;;;7391863;19;20090;-82
2024/02/15 16:23:18;;;;;;;7.32;2.40;;;18.10;99.90;;;;;;7405980;19;20363;-83
2024/02/15 16:25:59;;;;;;;6.50;2.55;;;18.10;99.90;;;;;;7386291;19;20006;-81
2024/02/15 16:28:37;;;;;;;5.23;2.43;;;18.10;99.90;;;;;;7411477;19;20023;-84
2024/02/15 16:31:46;;;;;;;6.25;2.58;;;18.10;99.90;;;;;;7412321;19;20010;-86
2024/02/15 16:43:10;;;;;;;4.68;2.42;;;18.00;99.90;;;;;;7332212;19;20071;-80
2024/02/15 16:45:41;;;;;;;8.38;2.70;;;18.00;99.90;;;;;;7383728;19;20351;-81
2024/02/15 16:48:28;;;;;;;10.23;1.92;;;17.90;99.90;;;;;;7408502;19;20063;-83
2024/02/15 16:54:08;;;;;;;6.18;2.55;;;17.80;99.90;;;;;;7387368;19;20007;-84
2024/02/15 16:56:42;;;;;;;4.18;2.50;;;17.80;99.90;;;;;;7388192;19;20006;-83
2024/02/15 17:02:42;;;;;;;;;;;;;;;;;;;;;
2024/02/15 17:05:41;;;;;;;6.88;2.45;;;17.70;99.90;;;;;;7410548;19;20003;-81
2024/02/15 17:08:12;;;;;;;9.48;2.67;;;17.60;99.90;;;;;;7362538;19;20011;-78
2024/02/15 17:10:47;;;;;;;7.47;2.92;;;17.70;99.90;;;;;;7407271;19;20093;-80
2024/02/15 17:13:15;;;;;;;4.88;2.92;;;17.60;99.90;;;;;;7404430;19;20011;-79
2024/02/15 17:15:46;;;;;;;6.25;3.42;;;17.60;99.90;;;;;;7384727;19;20007;-81
2024/02/15 17:18:17;;;;;;;14.10;4.80;;;17.60;99.90;;;;;;7385128;19;20286;-82
2024/02/15 17:20:47;;;;;;;17.42;6.03;;;17.60;99.90;;;;;;7386484;19;20024;-80
2024/02/15 17:23:26;;;;;;;12.83;6.10;;;17.60;99.90;;;;;;7390740;19;20326;-82
2024/02/15 17:25:55;;;;;;;11.80;4.90;;;17.60;99.90;;;;;;7388116;19;20099;-80
2024/02/15 17:28:24;;;;;;;9.50;4.55;;;17.60;99.90;;;;;;7404133;19;20107;-78
2024/02/15 17:30:53;;;;;;;10.38;4.10;;;17.50;99.90;;;;;;7383327;19;20006;-80
2024/02/15 17:33:24;;;;;;;14.15;3.47;;;17.50;99.90;;;;;;7382827;19;20003;-81
2024/02/15 17:35:56;;;;;;;14.30;3.45;;;17.50;99.90;;;;;;7382658;19;20006;-80
2024/02/15 17:38:27;;;;;;;10.07;3.30;;;17.50;99.90;;;;;;7382931;19;20248;-80
2024/02/15 17:40:56;;;;;;;;;;;17.50;99.90;;;;;;7384220;19;20006;-79
2024/02/15 17:43:26;;;;;;;6.68;3.42;;;17.50;99.90;;;;;;7406854;19;20104;-78
2024/02/15 17:45:54;;;;;;;8.95;4.00;;;17.50;99.90;;;;;;7382271;19;20002;-78
2024/02/15 17:48:27;;;;;;;8.63;3.55;;;17.50;99.90;;;;;;7383652;19;20040;-78
2024/02/15 17:50:57;;;;;;;9.50;3.63;;;17.40;99.90;;;;;;7383251;19;19999;-79
2024/02/15 17:53:31;;;;;;;10.05;3.83;;;17.40;99.90;;;;;;7385288;19;20011;-80
2024/02/15 17:56:00;;;;;;;7.53;3.70;;;17.40;99.90;;;;;;7384389;19;20123;-82
2024/02/15 17:58:29;;;;;;;9.77;4.07;;;17.40;99.90;;;;;;7410327;19;20235;-80
2024/02/15 18:00:58;;;;;;;12.00;4.43;;;17.40;99.90;;;;;;7394608;19;20035;-80
2024/02/15 18:03:29;;;;;;;12.10;4.60;;;17.40;99.90;;;;;;7391166;19;20011;-79
2024/02/15 18:06:10;;;;;;;7.90;4.38;;;17.40;99.90;;;;;;7391291;19;20023;-80
2024/02/15 18:08:44;;;;;;;10.27;4.28;;;17.40;99.90;;;;;;7390520;19;20223;-80
2024/02/15 18:11:17;;;;;;;14.13;3.90;;;17.40;99.90;;;;;;7383919;19;20020;-80
2024/02/15 18:13:51;;;;;;;10.23;4.00;;;17.40;99.90;;;;;;7385601;19;20010;-80
2024/02/15 18:16:21;;;;;;;9.90;4.35;;;17.40;99.90;;;;;;7406191;19;20010;-81
2024/02/15 18:18:51;;;;;;;12.07;4.03;;;17.40;99.90;;;;;;7387475;19;19998;-81
2024/02/15 18:21:25;;;;;;;13.55;4.50;;;17.40;99.90;;;;;;7386382;19;20036;-81
2024/02/15 18:23:57;;;;;;;17.05;4.72;;;17.30;99.90;;;;;;7386275;19;20385;-82
2024/02/15 18:26:37;;;;;;;;;;;;;;;;;;;;;
2024/02/15 18:29:14;;;;;;;6.27;3.87;;;17.30;99.90;;;;;;7388139;19;20027;-80
2024/02/15 18:31:49;;;;;;;8.65;3.90;;;17.30;99.90;;;;;;7386139;19;20346;-81
2024/02/15 18:34:18;;;;;;;19.40;4.25;;;17.30;99.90;;;;;;7408961;19;20007;-81
2024/02/15 18:36:50;;;;;;;8.93;4.07;;;17.30;99.90;;;;;;7388322;19;20011;-81
2024/02/15 18:39:24;;;;;;;8.50;4.10;;;17.30;99.90;;;;;;7386499;19;20027;-79
2024/02/15 18:41:53;;;;;;;6.63;3.67;;;17.30;99.90;;;;;;7385404;19;20002;-80
2024/02/15 18:44:25;;;;;;;9.27;3.67;;;17.30;99.90;;;;;;7387294;19;20011;-80
2024/02/15 18:46:57;;;;;;;15.52;4.28;;;17.30;99.90;;;;;;7386172;19;20013;-81
2024/02/15 18:49:29;;;;;;;13.18;4.53;;;17.30;99.90;;;;;;7407358;19;20007;-81
2024/02/15 18:52:11;;;;;;;8.98;4.22;;;17.30;99.90;;;;;;7383235;19;20336;-81
2024/02/15 18:54:45;;;;;;;16.48;4.43;;;17.30;99.90;;;;;;7383865;19;19998;-80
2024/02/15 18:57:13;;;;;;;10.95;4.90;;;17.30;99.90;;;;;;7385200;19;20023;-79
2024/02/15 18:59:43;;;;;;;8.07;3.95;;;17.30;99.90;;;;;;7388136;19;20052;-80
2024/02/15 19:02:14;;;;;;;9.88;4.30;;;17.30;99.90;;;;;;7387554;19;20266;-79
2024/02/15 19:04:45;;;;;;;9.57;4.63;;;17.30;99.90;;;;;;7387573;19;20249;-80
2024/02/15 19:07:14;;;;;;;7.40;3.95;;;17.30;99.90;;;;;;7406012;19;20021;-80
2024/02/15 19:09:59;;;;;;;11.10;4.57;;;17.30;99.90;;;;;;7382815;19;20020;-79
2024/02/15 19:12:32;;;;;;;10.27;4.28;;;17.30;99.90;;;;;;7384278;19;20074;-81
2024/02/15 19:15:06;;;;;;;7.85;4.32;;;17.30;99.90;;;;;;7389382;19;19999;-79
2024/02/15 19:17:36;;;;;;;15.05;5.38;;;17.30;99.90;;;;;;7387152;19;20007;-81
2024/02/15 19:20:08;;;;;;;8.63;4.47;;;17.30;99.90;;;;;;7387254;19;20027;-82
2024/02/15 19:23:07;;;;;;;11.52;4.65;;;17.30;99.90;;;;;;7406949;19;20002;-87
2024/02/15 19:25:55;;;;;;;15.65;5.40;;;17.30;99.90;;;;;;7382998;19;20375;-79
2024/02/15 19:28:26;;;;;;;13.25;7.20;;;17.30;99.90;;;;;;7381086;19;20026;-80
2024/02/15 19:31:07;;;;;;;18.40;7.72;;;17.30;99.90;;;;;;7386852;19;20003;-81
2024/02/15 19:33:42;;;;;;;16.10;6.88;;;17.30;99.90;;;;;;7390071;19;20013;-80
2024/02/15 19:36:14;;;;;;;22.65;10.75;;;17.30;99.90;;;;;;7388331;19;20003;-78
2024/02/15 19:39:17;;;;;;;11.18;5.80;;;17.30;99.90;;;;;;7390497;19;20011;-80
2024/02/15 19:41:55;;;;;;;12.15;6.22;;;17.30;99.90;;;;;;7393182;19;20011;-81
2024/02/15 19:44:47;;;;;;;;;;;;;;;;;;;;;
2024/02/15 19:50:46;;;;;;;;;;;;;;;;;;;;;
2024/02/15 19:53:30;;;;;;;;;;;;;;;;;;;;;
2024/02/15 19:55:59;;;;;;;12.43;5.53;;;17.30;99.90;;;;;;7394366;19;20006;-82
2024/02/15 19:58:32;;;;;;;11.38;5.50;;;17.30;99.90;;;;;;7423260;19;20018;-83
2024/02/15 20:01:27;;;;;;;13.63;5.47;;;17.30;99.90;;;;;;7402610;19;20054;-83
2024/02/15 20:03:57;;;;;;;19.90;4.70;;;17.30;99.90;;;;;;7394132;19;20003;-83
2024/02/15 20:06:44;;;;;;;;;;;;;;;;;;;;;
2024/02/15 20:09:22;;;;;;;11.93;5.18;;;17.30;99.90;;;;;;7397259;19;19998;-83
2024/02/15 20:11:58;;;;;;;20.67;5.55;;;17.20;99.90;;;;;;7399003;19;20095;-84
2024/02/15 20:14:36;;;;;;;14.40;5.00;;;17.20;99.90;;;;;;7398599;19;20022;-83
2024/02/15 20:17:09;;;;;;;13.38;5.25;;;17.10;99.90;;;;;;7395176;19;20011;-82
2024/02/15 20:20:08;;;;;;;16.65;5.10;;;17.10;99.90;;;;;;7420447;19;20006;-82
2024/02/15 20:22:43;;;;;;;13.95;5.95;;;17.10;99.90;;;;;;7395851;19;20014;-83
2024/02/15 20:25:17;;;;;;;9.63;5.40;;;17.00;99.90;;;;;;7399284;19;20021;-81
2024/02/15 20:27:46;;;;;;;14.05;5.47;;;17.00;99.90;;;;;;7404487;19;20030;-82
2024/02/15 20:30:44;;;;;;;;;;;;;;;;;;;;;
2024/02/15 20:33:35;;;;;;;11.70;5.47;;;17.00;99.90;;;;;;7400885;19;20282;-82
2024/02/15 20:36:27;;;;;;;9.40;5.05;;;17.10;99.90;;;;;;7402111;19;20007;-83
2024/02/15 20:39:06;;;;;;;;;;;;;;;;;;;;;
2024/02/15 20:42:05;;;;;;;16.10;6.00;;;17.10;99.90;;;;;;7414164;19;20010;-81
2024/02/15 20:44:41;;;;;;;10.65;5.72;;;17.00;99.90;;;;;;7387114;19;20067;-85
2024/02/15 20:47:47;;;;;;;13.70;6.05;;;17.10;99.90;;;;;;7390072;19;20024;-84
2024/02/15 20:50:31;;;;;;;16.02;6.82;;;17.00;99.90;;;;;;7413371;19;20018;-83
2024/02/15 20:53:07;;;;;;;22.75;6.82;;;17.00;99.90;;;;;;7392531;19;20383;-83
2024/02/15 20:56:00;;;;;;;;;;;;;;;;;;;;;
2024/02/15 20:58:42;;;;;;;21.55;7.82;;;17.00;99.90;;;;;;7397499;19;20828;-85
2024/02/15 21:01:22;;;;;;;23.08;7.95;;;17.00;99.90;;;;;;7395561;19;19999;-83
2024/02/15 21:04:10;;;;;;;15.68;7.30;;;17.00;99.90;;;;;;7393318;19;20058;-84
2024/02/15 21:10:48;;;;;;;30.75;9.20;;;16.90;99.90;;;;;;7393173;19;20017;-84
2024/02/15 21:13:48;;;;;;;;;;;;;;;;;;;;;
2024/02/15 21:19:56;;;;;;;27.70;7.40;;;16.90;99.90;;;;;;7395428;19;20027;-84
2024/02/15 21:25:26;;;;;;;15.02;6.35;;;16.90;99.90;;;;;;7412557;19;20015;-84
2024/02/15 21:28:04;;;;;;;16.25;6.78;;;16.90;99.90;;;;;;7396921;19;20009;-84
2024/02/15 21:55:44;;;;;;;15.13;6.40;;;16.90;99.90;;;;;;7432660;19;20348;-84
2024/02/15 22:04:58;;;;;;;17.30;6.28;;;17.00;99.90;;;;;;7402306;19;20259;-81
2024/02/15 22:07:28;;;;;;;11.05;5.88;;;17.00;99.90;;;;;;7438653;19;20006;-82
2024/02/15 22:09:58;;;;;;;18.60;6.25;;;17.00;99.90;;;;;;7417215;19;20017;-81
2024/02/15 22:12:36;;;;;;;12.20;5.90;;;17.00;99.90;;;;;;7415031;19;20002;-81
2024/02/15 22:15:09;;;;;;;15.90;5.90;;;17.00;99.90;;;;;;7413535;19;20030;-81
2024/02/15 22:17:48;;;;;;;14.18;6.70;;;17.00;99.90;;;;;;7411881;19;20007;-81
2024/02/15 22:20:34;;;;;;;19.45;5.65;;;17.00;99.90;;;;;;7414978;19;20009;-80
2024/02/15 22:23:05;;;;;;;11.85;5.82;;;17.00;99.90;;;;;;7434209;19;20090;-81
2024/02/15 22:25:36;;;;;;;11.15;5.78;;;17.00;99.90;;;;;;7416434;19;20013;-80
2024/02/15 22:28:16;;;;;;;11.10;5.35;;;17.00;99.90;;;;;;7415193;19;20011;-80
2024/02/15 22:30:45;;;;;;;13.75;5.28;;;17.00;99.90;;;;;;7416629;19;20034;-82
2024/02/15 22:33:13;;;;;;;14.48;5.07;;;17.00;99.90;;;;;;7416050;19;20281;-81
2024/02/15 22:35:47;;;;;;;13.65;5.47;;;17.00;99.90;;;;;;7418287;19;20541;-82
2024/02/15 22:38:15;;;;;;;12.45;5.03;;;17.00;99.90;;;;;;7419052;19;20017;-81
2024/02/15 22:40:47;;;;;;;14.77;5.03;;;17.00;99.90;;;;;;7438348;19;20006;-81
2024/02/15 22:43:31;;;;;;;;;;;;;;;;;;;;;
2024/02/15 22:46:02;;;;;;;10.77;4.43;;;17.00;99.90;;;;;;7420390;19;20030;-81
2024/02/15 22:48:32;;;;;;;12.60;4.57;;;17.00;99.90;;;;;;7421920;19;20010;-81
2024/02/15 22:51:04;;;;;;;9.52;4.40;;;17.00;99.90;;;;;;7419607;19;20002;-82
2024/02/15 22:53:36;;;;;;;10.73;3.83;;;17.10;99.90;;;;;;7412128;19;20014;-80
2024/02/15 22:56:09;;;;;;;11.57;4.25;;;17.00;99.90;;;;;;7415574;19;20006;-81
2024/02/15 22:58:40;;;;;;;7.10;3.95;;;17.10;99.90;;;;;;7403780;19;20005;-80
2024/02/15 23:01:09;;;;;;;7.82;4.07;;;17.00;99.90;;;;;;7404288;19;20021;-80
2024/02/15 23:03:39;;;;;;;10.70;4.10;;;17.00;99.90;;;;;;7402617;19;20003;-80
2024/02/15 23:06:12;;;;;;;7.23;4.07;;;17.00;99.90;;;;;;7401557;19;20377;-81
2024/02/15 23:08:41;;;;;;;9.05;3.80;;;17.00;99.90;;;;;;7394745;19;20694;-80
2024/02/15 23:11:10;;;;;;;7.40;3.53;;;17.00;99.90;;;;;;7409553;19;20357;-80
2024/02/15 23:13:41;;;;;;;12.13;3.67;;;17.10;99.90;;;;;;7388215;19;20007;-81
2024/02/15 23:16:10;;;;;;;7.80;3.28;;;17.00;99.90;;;;;;7387165;19;20560;-80
2024/02/15 23:18:40;;;;;;;6.35;3.40;;;17.00;99.90;;;;;;7388313;19;20020;-80
2024/02/15 23:21:08;;;;;;;6.03;3.30;;;17.10;99.90;;;;;;7388413;19;20263;-81
2024/02/15 23:23:38;;;;;;;6.20;3.25;;;17.10;99.90;;;;;;7386732;19;20003;-80
2024/02/15 23:26:09;;;;;;;6.65;3.42;;;17.10;99.90;;;;;;7411447;19;20006;-79
2024/02/15 23:28:37;;;;;;;7.82;3.83;;;17.10;99.90;;;;;;7388586;19;20011;-81
2024/02/15 23:31:09;;;;;;;9.02;2.97;;;17.10;99.90;;;;;;7387472;19;19999;-81
2024/02/15 23:33:57;;;;;;;;;;;17.10;99.90;;;;;;7391287;19;20013;-81
2024/02/15 23:40:18;;;;;;;7.68;3.47;;;17.10;99.90;;;;;;7389697;19;20032;-80
2024/02/15 23:42:17;;;;;;;10.85;3.47;;;17.10;99.90;;;;;;7388120;19;20006;-79
2024/02/15 23:44:45;;;;;;;6.75;2.85;;;17.10;99.90;;;;;;7386094;19;20006;-79
2024/02/15 23:47:19;;;;;;;6.90;3.17;;;17.10;99.90;;;;;;7408749;19;20350;-80
2024/02/15 23:49:48;;;;;;;6.50;3.20;;;17.00;99.90;;;;;;7385335;19;20006;-78
2024/02/15 23:52:18;;;;;;;9.30;3.22;;;17.10;99.90;;;;;;7383908;19;20007;-79
2024/02/15 23:54:46;;;;;;;6.20;3.10;;;17.00;99.90;;;;;;7388013;19;20354;-78
2024/02/15 23:57:15;;;;;;;5.43;2.80;;;17.00;99.90;;;;;;7390407;19;20435;-79
2024/02/15 23:59:44;;;;;;;5.22;3.00;;;17.00;99.90;;;;;;7387478;19;20006;-80
